Home > Products > Valid Products > TAF

000
FTUS43 KMKX 270520
TAFMKE
TAF
KMKE 270520Z 2706/2812 36007KT P6SM SKC
     FM271900 03011KT P6SM SCT080=



000
FTUS43 KMKX 270520
TAFMKE
TAF
KMKE 270520Z 2706/2812 36007KT P6SM SKC
     FM271900 03011KT P6SM SCT080=



000
FTUS43 KMKX 270520
TAFMKE
TAF
KMKE 270520Z 2706/2812 36007KT P6SM SKC
     FM271900 03011KT P6SM SCT080=



000
FTUS43 KMKX 270520
TAFMSN
TAF
KMSN 270520Z 2706/2806 10008KT P6SM SKC
     FM271300 35006KT P6SM FEW250
     FM280300 00000KT P6SM SKC=



000
FTUS43 KMKX 270520
TAFMSN
TAF
KMSN 270520Z 2706/2806 10008KT P6SM SKC
     FM271300 35006KT P6SM FEW250
     FM280300 00000KT P6SM SKC=



000
FTUS43 KMKX 270520
TAFMKE
TAF
KMKE 270520Z 2706/2812 36007KT P6SM SKC
     FM271900 03011KT P6SM SCT080=



000
FTUS43 KMKX 270520
TAFMSN
TAF
KMSN 270520Z 2706/2806 10008KT P6SM SKC
     FM271300 35006KT P6SM FEW250
     FM280300 00000KT P6SM SKC=



000
FTUS43 KMKX 270520
TAFMSN
TAF
KMSN 270520Z 2706/2806 10008KT P6SM SKC
     FM271300 35006KT P6SM FEW250
     FM280300 00000KT P6SM SKC=



000
FTUS43 KMKX 270303 AAA
TAFMKE
TAF AMD
KMKE 270303Z 2703/2806 02009KT P6SM SKC
     FM270800 35008KT P6SM FEW250
     FM271400 36011KT P6SM SCT050
     FM271900 03011KT P6SM SCT060
     FM280100 03007KT P6SM FEW250=



000
FTUS43 KMKX 270303 AAA
TAFMKE
TAF AMD
KMKE 270303Z 2703/2806 02009KT P6SM SKC
     FM270800 35008KT P6SM FEW250
     FM271400 36011KT P6SM SCT050
     FM271900 03011KT P6SM SCT060
     FM280100 03007KT P6SM FEW250=



000
FTUS43 KMKX 262340
TAFMSN
TAF
KMSN 262340Z 2700/2724 03009KT P6SM SKC
     FM270200 VRB04KT P6SM SKC
     FM271500 36008KT P6SM FEW200=



000
FTUS43 KMKX 262340
TAFMKE
TAF
KMKE 262340Z 2700/2806 03009KT P6SM SKC
     FM270800 35008KT P6SM FEW250
     FM271400 36011KT P6SM SCT050
     FM271900 03011KT P6SM SCT060
     FM280100 03007KT P6SM FEW250=



000
FTUS43 KMKX 262340
TAFMKE
TAF
KMKE 262340Z 2700/2806 03009KT P6SM SKC
     FM270800 35008KT P6SM FEW250
     FM271400 36011KT P6SM SCT050
     FM271900 03011KT P6SM SCT060
     FM280100 03007KT P6SM FEW250=



000
FTUS43 KMKX 262340
TAFMSN
TAF
KMSN 262340Z 2700/2724 03009KT P6SM SKC
     FM270200 VRB04KT P6SM SKC
     FM271500 36008KT P6SM FEW200=



000
FTUS43 KMKX 262037 AAC
TAFMKE
TAF AMD
KMKE 262037Z 2621/2724 03012G18KT P6SM SKC
     FM270200 01008KT P6SM SKC
     FM270900 34008KT P6SM FEW025
     FM271400 02012G18KT P6SM SCT035=



000
FTUS43 KMKX 262037 AAC
TAFMKE
TAF AMD
KMKE 262037Z 2621/2724 03012G18KT P6SM SKC
     FM270200 01008KT P6SM SKC
     FM270900 34008KT P6SM FEW025
     FM271400 02012G18KT P6SM SCT035=



000
FTUS43 KMKX 262036 AAC
TAFMSN
TAF AMD
KMSN 262036Z 2621/2718 01010G15KT P6SM SKC
     FM270100 01005KT P6SM SKC
     FM271600 36009KT P6SM FEW250=



000
FTUS43 KMKX 262036 AAC
TAFMSN
TAF AMD
KMSN 262036Z 2621/2718 01010G15KT P6SM SKC
     FM270100 01005KT P6SM SKC
     FM271600 36009KT P6SM FEW250=



000
FTUS43 KMKX 262004 AAB
TAFMKE
TAF AMD
KMKE 262004Z 2620/2724 03012G18KT P6SM SKC
     FM270200 01008KT P6SM SKC
     FM270900 34008KT P6SM FEW025
     FM271400 02012G18KT P6SM SCT035=



000
FTUS43 KMKX 262004 AAB
TAFMKE
TAF AMD
KMKE 262004Z 2620/2724 03012G18KT P6SM SKC
     FM270200 01008KT P6SM SKC
     FM270900 34008KT P6SM FEW025
     FM271400 02012G18KT P6SM SCT035=



000
FTUS43 KMKX 262004 AAB
TAFMKE
TAF AMD
KMKE 262004Z 2620/2724 03012G18KT P6SM SKC
     FM270200 01008KT P6SM SKC
     FM270900 34008KT P6SM FEW025
     FM271400 02012G18KT P6SM SCT035=



000
FTUS43 KMKX 262004 AAB
TAFMKE
TAF AMD
KMKE 262004Z 2620/2724 03012G18KT P6SM SKC
     FM270200 01008KT P6SM SKC
     FM270900 34008KT P6SM FEW025
     FM271400 02012G18KT P6SM SCT035=



000
FTUS43 KMKX 262003 AAB
TAFMSN
TAF AMD
KMSN 262003Z 2620/2718 01010G15KT P6SM SKC
     FM270100 01005KT P6SM SKC
     FM271600 36009KT P6SM FEW250=



000
FTUS43 KMKX 262003 AAB
TAFMSN
TAF AMD
KMSN 262003Z 2620/2718 01010G15KT P6SM SKC
     FM270100 01005KT P6SM SKC
     FM271600 36009KT P6SM FEW250=



000
FTUS43 KMKX 261901 AAA
TAFMKE
TAF AMD
KMKE 261901Z 2619/2724 03011G18KT P6SM SKC
     FM270200 01008KT P6SM SKC
     FM270900 34008KT P6SM FEW025
     FM271400 02012G18KT P6SM SCT035=



000
FTUS43 KMKX 261901 AAA
TAFMKE
TAF AMD
KMKE 261901Z 2619/2724 03011G18KT P6SM SKC
     FM270200 01008KT P6SM SKC
     FM270900 34008KT P6SM FEW025
     FM271400 02012G18KT P6SM SCT035=



000
FTUS43 KMKX 261900 AAA
TAFMSN
TAF AMD
KMSN 261900Z 2619/2718 01011G15KT P6SM SKC
     FM270100 01005KT P6SM SKC
     FM271600 36009KT P6SM FEW250=



000
FTUS43 KMKX 261900 AAA
TAFMSN
TAF AMD
KMSN 261900Z 2619/2718 01011G15KT P6SM SKC
     FM270100 01005KT P6SM SKC
     FM271600 36009KT P6SM FEW250=



000
FTUS43 KMKX 261900 AAA
TAFMSN
TAF AMD
KMSN 261900Z 2619/2718 01011G15KT P6SM SKC
     FM270100 01005KT P6SM SKC
     FM271600 36009KT P6SM FEW250=



000
FTUS43 KMKX 261900 AAA
TAFMSN
TAF AMD
KMSN 261900Z 2619/2718 01011G15KT P6SM SKC
     FM270100 01005KT P6SM SKC
     FM271600 36009KT P6SM FEW250=



000
FTUS43 KMKX 261723
TAFMKE
TAF
KMKE 261723Z 2618/2724 03012G20KT P6SM SKC
     FM270200 01008KT P6SM SKC
     FM270900 34008KT P6SM FEW025
     FM271400 02012G18KT P6SM SCT035=



000
FTUS43 KMKX 261723
TAFMSN
TAF
KMSN 261723Z 2618/2718 03012KT P6SM SKC
     FM270100 01005KT P6SM SKC
     FM271600 36009KT P6SM FEW250=



000
FTUS43 KMKX 261723
TAFMKE
TAF
KMKE 261723Z 2618/2724 03012G20KT P6SM SKC
     FM270200 01008KT P6SM SKC
     FM270900 34008KT P6SM FEW025
     FM271400 02012G18KT P6SM SCT035=



000
FTUS43 KMKX 261723
TAFMSN
TAF
KMSN 261723Z 2618/2718 03012KT P6SM SKC
     FM270100 01005KT P6SM SKC
     FM271600 36009KT P6SM FEW250=



000
FTUS43 KMKX 261723
TAFMKE
TAF
KMKE 261723Z 2618/2724 03012G20KT P6SM SKC
     FM270200 01008KT P6SM SKC
     FM270900 34008KT P6SM FEW025
     FM271400 02012G18KT P6SM SCT035=



000
FTUS43 KMKX 261723
TAFMSN
TAF
KMSN 261723Z 2618/2718 03012KT P6SM SKC
     FM270100 01005KT P6SM SKC
     FM271600 36009KT P6SM FEW250=



000
FTUS43 KMKX 261454 AAA
TAFMKE
TAF AMD
KMKE 261454Z 2615/2718 03013KT P6SM SKC
     FM261800 03013G20KT P6SM SKC
     FM270200 01008KT P6SM SKC
     FM271500 01012KT P6SM FEW025
     FM271700 02012KT P6SM SCT035=



000
FTUS43 KMKX 261454 AAA
TAFMSN
TAF AMD
KMSN 261454Z 2615/2712 06004KT P6SM SKC
     FM261700 02009G17KT P6SM SKC
     FM270100 01005KT P6SM SKC=



000
FTUS43 KMKX 261454 AAA
TAFMKE
TAF AMD
KMKE 261454Z 2615/2718 03013KT P6SM SKC
     FM261800 03013G20KT P6SM SKC
     FM270200 01008KT P6SM SKC
     FM271500 01012KT P6SM FEW025
     FM271700 02012KT P6SM SCT035=



000
FTUS43 KMKX 261454 AAA
TAFMSN
TAF AMD
KMSN 261454Z 2615/2712 06004KT P6SM SKC
     FM261700 02009G17KT P6SM SKC
     FM270100 01005KT P6SM SKC=



000
FTUS43 KMKX 261120
TAFMSN
TAF
KMSN 261120Z 2612/2712 04007KT P6SM SKC
     FM261800 02009G17KT P6SM FEW050
     FM270100 01005KT P6SM SKC=



000
FTUS43 KMKX 261120
TAFMKE
TAF
KMKE 261120Z 2612/2718 01010KT P6SM SKC
     FM261600 02011G18KT P6SM FEW050
     FM270400 01007KT P6SM FEW080
     FM271500 36011KT P6SM FEW025
     FM271700 02012KT P6SM SCT035=



000
FTUS43 KMKX 260918 AAA
TAFMKE
TAF AMD
KMKE 260918Z 2609/2712 03010KT P6SM SKC
     FM261600 03012G19KT P6SM FEW120
     FM270200 02008KT P6SM FEW250
     FM270800 35008KT P6SM FEW250=



000
FTUS43 KMKX 260918 AAA
TAFMKE
TAF AMD
KMKE 260918Z 2609/2712 03010KT P6SM SKC
     FM261600 03012G19KT P6SM FEW120
     FM270200 02008KT P6SM FEW250
     FM270800 35008KT P6SM FEW250=



000
FTUS43 KMKX 260520
TAFMSN
TAF
KMSN 260520Z 2606/2706 03006KT P6SM SKC
     FM261600 01011KT P6SM SCT250=



000
FTUS43 KMKX 260520
TAFMKE
TAF
KMKE 260520Z 2606/2712 03012KT P6SM FEW120
     FM270200 02008KT P6SM FEW250
     FM270800 35008KT P6SM FEW250=



000
FTUS43 KMKX 260520
TAFMSN
TAF
KMSN 260520Z 2606/2706 03006KT P6SM SKC
     FM261600 01011KT P6SM SCT250=



000
FTUS43 KMKX 260520
TAFMKE
TAF
KMKE 260520Z 2606/2712 03012KT P6SM FEW120
     FM270200 02008KT P6SM FEW250
     FM270800 35008KT P6SM FEW250=



000
FTUS43 KMKX 260520
TAFMSN
TAF
KMSN 260520Z 2606/2706 03006KT P6SM SKC
     FM261600 01011KT P6SM SCT250=



000
FTUS43 KMKX 260520
TAFMKE
TAF
KMKE 260520Z 2606/2712 03012KT P6SM FEW120
     FM270200 02008KT P6SM FEW250
     FM270800 35008KT P6SM FEW250=



000
FTUS43 KMKX 260520
TAFMSN
TAF
KMSN 260520Z 2606/2706 03006KT P6SM SKC
     FM261600 01011KT P6SM SCT250=



000
FTUS43 KMKX 260520
TAFMKE
TAF
KMKE 260520Z 2606/2712 03012KT P6SM FEW120
     FM270200 02008KT P6SM FEW250
     FM270800 35008KT P6SM FEW250=



000
FTUS43 KMKX 260249 AAA
TAFMSN
TAF AMD
KMSN 260249Z 2603/2624 03010KT P6SM SCT110 BKN200
     FM260900 03006KT P6SM FEW250=



000
FTUS43 KMKX 260249 AAA
TAFMSN
TAF AMD
KMSN 260249Z 2603/2624 03010KT P6SM SCT110 BKN200
     FM260900 03006KT P6SM FEW250=



000
FTUS43 KMKX 260246 AAA
TAFMKE
TAF AMD
KMKE 260246Z 2603/2706 02011G20KT P6SM SCT100 BKN250
     FM260700 02007KT P6SM FEW250
     FM261600 02011KT P6SM FEW045=



000
FTUS43 KMKX 260246 AAA
TAFMKE
TAF AMD
KMKE 260246Z 2603/2706 02011G20KT P6SM SCT100 BKN250
     FM260700 02007KT P6SM FEW250
     FM261600 02011KT P6SM FEW045=



000
FTUS43 KMKX 260246 AAA
TAFMKE
TAF AMD
KMKE 260246Z 2603/2706 02011G20KT P6SM SCT100 BKN250
     FM260700 02007KT P6SM FEW250
     FM261600 02011KT P6SM FEW045=



000
FTUS43 KMKX 260246 AAA
TAFMKE
TAF AMD
KMKE 260246Z 2603/2706 02011G20KT P6SM SCT100 BKN250
     FM260700 02007KT P6SM FEW250
     FM261600 02011KT P6SM FEW045=



000
FTUS43 KMKX 252320
TAFMSN
TAF
KMSN 252320Z 2600/2624 06010KT P6SM SCT070 BKN200
     FM260400 04006KT P6SM FEW250=



000
FTUS43 KMKX 252320
TAFMSN
TAF
KMSN 252320Z 2600/2624 06010KT P6SM SCT070 BKN200
     FM260400 04006KT P6SM FEW250=



000
FTUS43 KMKX 252320
TAFMKE
TAF
KMKE 252320Z 2600/2706 02013G22KT P6SM BKN200
     FM260300 01011KT P6SM SCT250
     FM260700 02007KT P6SM FEW250
     FM261600 02011KT P6SM FEW045=



000
FTUS43 KMKX 252320
TAFMKE
TAF
KMKE 252320Z 2600/2706 02013G22KT P6SM BKN200
     FM260300 01011KT P6SM SCT250
     FM260700 02007KT P6SM FEW250
     FM261600 02011KT P6SM FEW045=



000
FTUS43 KMKX 252320
TAFMKE
TAF
KMKE 252320Z 2600/2706 02013G22KT P6SM BKN200
     FM260300 01011KT P6SM SCT250
     FM260700 02007KT P6SM FEW250
     FM261600 02011KT P6SM FEW045=



000
FTUS43 KMKX 252320
TAFMSN
TAF
KMSN 252320Z 2600/2624 06010KT P6SM SCT070 BKN200
     FM260400 04006KT P6SM FEW250=



000
FTUS43 KMKX 252320
TAFMSN
TAF
KMSN 252320Z 2600/2624 06010KT P6SM SCT070 BKN200
     FM260400 04006KT P6SM FEW250=



000
FTUS43 KMKX 252320
TAFMKE
TAF
KMKE 252320Z 2600/2706 02013G22KT P6SM BKN200
     FM260300 01011KT P6SM SCT250
     FM260700 02007KT P6SM FEW250
     FM261600 02011KT P6SM FEW045=



000
FTUS43 KMKX 252044 AAB
TAFMKE
TAF AMD
KMKE 252044Z 2521/2624 03012G21KT P6SM OVC040
     FM260200 02012G19KT P6SM SCT040
     FM260600 02008KT P6SM SKC
     FM261700 02012G17KT P6SM SKC=



000
FTUS43 KMKX 252044 AAB
TAFMKE
TAF AMD
KMKE 252044Z 2521/2624 03012G21KT P6SM OVC040
     FM260200 02012G19KT P6SM SCT040
     FM260600 02008KT P6SM SKC
     FM261700 02012G17KT P6SM SKC=



000
FTUS43 KMKX 252043 AAB
TAFMSN
TAF AMD
KMSN 252043Z 2521/2618 07014G20KT P6SM OVC050
     FM260000 05009KT P6SM SCT050
     FM261000 03005KT P6SM SKC
     FM261700 03009KT P6SM FEW040=



000
FTUS43 KMKX 252043 AAB
TAFMSN
TAF AMD
KMSN 252043Z 2521/2618 07014G20KT P6SM OVC050
     FM260000 05009KT P6SM SCT050
     FM261000 03005KT P6SM SKC
     FM261700 03009KT P6SM FEW040=



000
FTUS43 KMKX 252043 AAB
TAFMSN
TAF AMD
KMSN 252043Z 2521/2618 07014G20KT P6SM OVC050
     FM260000 05009KT P6SM SCT050
     FM261000 03005KT P6SM SKC
     FM261700 03009KT P6SM FEW040=



000
FTUS43 KMKX 251928 AAA
TAFMSN
TAF AMD
KMSN 251928Z 2519/2618 06014G20KT P6SM OVC050
     FM260100 05009KT P6SM BKN150
     FM261000 03005KT P6SM SKC
     FM261700 03009KT P6SM FEW040=



000
FTUS43 KMKX 251928 AAA
TAFMSN
TAF AMD
KMSN 251928Z 2519/2618 06014G20KT P6SM OVC050
     FM260100 05009KT P6SM BKN150
     FM261000 03005KT P6SM SKC
     FM261700 03009KT P6SM FEW040=



000
FTUS43 KMKX 251926 AAA
TAFMKE
TAF AMD
KMKE 251926Z 2519/2624 04013G21KT P6SM OVC035
     FM252100 03015G22KT P6SM BKN070
     FM260200 02012G20KT P6SM SCT250
     FM260600 02008KT P6SM SKC
     FM261700 02012G17KT P6SM SKC=



000
FTUS43 KMKX 251926 AAA
TAFMKE
TAF AMD
KMKE 251926Z 2519/2624 04013G21KT P6SM OVC035
     FM252100 03015G22KT P6SM BKN070
     FM260200 02012G20KT P6SM SCT250
     FM260600 02008KT P6SM SKC
     FM261700 02012G17KT P6SM SKC=



000
FTUS43 KMKX 251726
TAFMKE
TAF
KMKE 251726Z 2518/2624 06013G21KT P6SM SCT009 OVC060
     FM252100 03015G22KT P6SM BKN070
     FM260200 02012G20KT P6SM SCT250
     FM260600 02008KT P6SM SKC
     FM261700 02012G17KT P6SM SKC=



000
FTUS43 KMKX 251726
TAFMKE
TAF
KMKE 251726Z 2518/2624 06013G21KT P6SM SCT009 OVC060
     FM252100 03015G22KT P6SM BKN070
     FM260200 02012G20KT P6SM SCT250
     FM260600 02008KT P6SM SKC
     FM261700 02012G17KT P6SM SKC=



000
FTUS43 KMKX 251726
TAFMSN
TAF
KMSN 251726Z 2518/2618 06013G20KT P6SM OVC040
     FM260100 05009KT P6SM BKN150
     FM261000 03005KT P6SM SKC
     FM261700 03009KT P6SM FEW040=



000
FTUS43 KMKX 251726
TAFMKE
TAF
KMKE 251726Z 2518/2624 06013G21KT P6SM SCT009 OVC060
     FM252100 03015G22KT P6SM BKN070
     FM260200 02012G20KT P6SM SCT250
     FM260600 02008KT P6SM SKC
     FM261700 02012G17KT P6SM SKC=



000
FTUS43 KMKX 251726
TAFMSN
TAF
KMSN 251726Z 2518/2618 06013G20KT P6SM OVC040
     FM260100 05009KT P6SM BKN150
     FM261000 03005KT P6SM SKC
     FM261700 03009KT P6SM FEW040=



000
FTUS43 KMKX 251726
TAFMSN
TAF
KMSN 251726Z 2518/2618 06013G20KT P6SM OVC040
     FM260100 05009KT P6SM BKN150
     FM261000 03005KT P6SM SKC
     FM261700 03009KT P6SM FEW040=



000
FTUS43 KMKX 251726
TAFMKE
TAF
KMKE 251726Z 2518/2624 06013G21KT P6SM SCT009 OVC060
     FM252100 03015G22KT P6SM BKN070
     FM260200 02012G20KT P6SM SCT250
     FM260600 02008KT P6SM SKC
     FM261700 02012G17KT P6SM SKC=



000
FTUS43 KMKX 251726
TAFMSN
TAF
KMSN 251726Z 2518/2618 06013G20KT P6SM OVC040
     FM260100 05009KT P6SM BKN150
     FM261000 03005KT P6SM SKC
     FM261700 03009KT P6SM FEW040=



000
FTUS43 KMKX 251411 AAA
TAFMSN
TAF AMD
KMSN 251411Z 2514/2612 08012G19KT P6SM SCT025 OVC050
     FM260100 05010KT P6SM BKN090
     FM260200 05009KT P6SM SCT090=



000
FTUS43 KMKX 251411 AAA
TAFMSN
TAF AMD
KMSN 251411Z 2514/2612 08012G19KT P6SM SCT025 OVC050
     FM260100 05010KT P6SM BKN090
     FM260200 05009KT P6SM SCT090=



000
FTUS43 KMKX 251411 AAA
TAFMSN
TAF AMD
KMSN 251411Z 2514/2612 08012G19KT P6SM SCT025 OVC050
     FM260100 05010KT P6SM BKN090
     FM260200 05009KT P6SM SCT090=



000
FTUS43 KMKX 251410 AAA
TAFMKE
TAF AMD
KMKE 251410Z 2514/2618 05011G17KT P6SM SCT025 OVC050
     FM251800 05013G20KT P6SM OVC035
     FM260000 02014KT P6SM BKN090
     FM260200 02012KT P6SM SCT100
     FM260600 03008KT P6SM FEW250
     FM261700 02012KT P6SM FEW250=



000
FTUS43 KMKX 251120
TAFMSN
TAF
KMSN 251120Z 2512/2612 08011G18KT P6SM SCT030 OVC045
     FM260100 05010KT P6SM BKN090
     FM260200 05009KT P6SM SCT090=



000
FTUS43 KMKX 251120
TAFMKE
TAF
KMKE 251120Z 2512/2618 08011G17KT P6SM SCT025 OVC050
     FM251800 05013G20KT P6SM OVC035
     FM260000 02014KT P6SM BKN090
     FM260200 02012KT P6SM SCT100
     FM260600 03008KT P6SM FEW250
     FM261700 02012KT P6SM FEW250=



000
FTUS43 KMKX 251120
TAFMKE
TAF
KMKE 251120Z 2512/2618 08011G17KT P6SM SCT025 OVC050
     FM251800 05013G20KT P6SM OVC035
     FM260000 02014KT P6SM BKN090
     FM260200 02012KT P6SM SCT100
     FM260600 03008KT P6SM FEW250
     FM261700 02012KT P6SM FEW250=



000
FTUS43 KMKX 251120
TAFMSN
TAF
KMSN 251120Z 2512/2612 08011G18KT P6SM SCT030 OVC045
     FM260100 05010KT P6SM BKN090
     FM260200 05009KT P6SM SCT090=



000
FTUS43 KMKX 250904 AAA
TAFMKE
TAF AMD
KMKE 250904Z 2509/2612 06010KT P6SM OVC040
     FM251400 07014G21KT P6SM BKN025 OVC040
     FM252100 04014G22KT P6SM VCSH OVC050
     FM252200 04014KT P6SM OVC090
     FM260400 03010KT P6SM SCT250=



000
FTUS43 KMKX 250904 AAA
TAFMKE
TAF AMD
KMKE 250904Z 2509/2612 06010KT P6SM OVC040
     FM251400 07014G21KT P6SM BKN025 OVC040
     FM252100 04014G22KT P6SM VCSH OVC050
     FM252200 04014KT P6SM OVC090
     FM260400 03010KT P6SM SCT250=



000
FTUS43 KMKX 250904 AAA
TAFMKE
TAF AMD
KMKE 250904Z 2509/2612 06010KT P6SM OVC040
     FM251400 07014G21KT P6SM BKN025 OVC040
     FM252100 04014G22KT P6SM VCSH OVC050
     FM252200 04014KT P6SM OVC090
     FM260400 03010KT P6SM SCT250=



000
FTUS43 KMKX 250901 AAA
TAFMSN
TAF AMD
KMSN 250901Z 2509/2606 10010G18KT P6SM OVC040
     FM251300 08014G22KT P6SM VCSH BKN025 OVC050
     FM252000 07015G24KT P6SM OVC050
     FM252300 07014KT P6SM OVC060
     FM260200 05010KT P6SM SCT110=



000
FTUS43 KMKX 250901 AAA
TAFMSN
TAF AMD
KMSN 250901Z 2509/2606 10010G18KT P6SM OVC040
     FM251300 08014G22KT P6SM VCSH BKN025 OVC050
     FM252000 07015G24KT P6SM OVC050
     FM252300 07014KT P6SM OVC060
     FM260200 05010KT P6SM SCT110=



000
FTUS43 KMKX 250901 AAA
TAFMSN
TAF AMD
KMSN 250901Z 2509/2606 10010G18KT P6SM OVC040
     FM251300 08014G22KT P6SM VCSH BKN025 OVC050
     FM252000 07015G24KT P6SM OVC050
     FM252300 07014KT P6SM OVC060
     FM260200 05010KT P6SM SCT110=



000
FTUS43 KMKX 250520
TAFMKE
TAF
KMKE 250520Z 2506/2612 06009KT P6SM OVC040
     FM251400 08014KT P6SM -RA OVC030
     FM251600 07014G21KT 6SM -RA OVC015
     FM252100 04014G22KT P6SM VCSH OVC030
     FM252200 04014KT P6SM OVC045
     FM260400 03010KT P6SM SCT250=



000
FTUS43 KMKX 250520
TAFMSN
TAF
KMSN 250520Z 2506/2606 10010KT P6SM OVC040
     FM250900 09011KT P6SM OVC025
     FM251300 08014G22KT 6SM -RA OVC015
     FM252000 07015G24KT P6SM VCSH OVC025
     FM252300 07014KT P6SM OVC050
     FM260200 05010KT P6SM SCT110=



000
FTUS43 KMKX 250520
TAFMSN
TAF
KMSN 250520Z 2506/2606 10010KT P6SM OVC040
     FM250900 09011KT P6SM OVC025
     FM251300 08014G22KT 6SM -RA OVC015
     FM252000 07015G24KT P6SM VCSH OVC025
     FM252300 07014KT P6SM OVC050
     FM260200 05010KT P6SM SCT110=



000
FTUS43 KMKX 250520
TAFMKE
TAF
KMKE 250520Z 2506/2612 06009KT P6SM OVC040
     FM251400 08014KT P6SM -RA OVC030
     FM251600 07014G21KT 6SM -RA OVC015
     FM252100 04014G22KT P6SM VCSH OVC030
     FM252200 04014KT P6SM OVC045
     FM260400 03010KT P6SM SCT250=



000
FTUS43 KMKX 250520
TAFMKE
TAF
KMKE 250520Z 2506/2612 06009KT P6SM OVC040
     FM251400 08014KT P6SM -RA OVC030
     FM251600 07014G21KT 6SM -RA OVC015
     FM252100 04014G22KT P6SM VCSH OVC030
     FM252200 04014KT P6SM OVC045
     FM260400 03010KT P6SM SCT250=



000
FTUS43 KMKX 250520
TAFMSN
TAF
KMSN 250520Z 2506/2606 10010KT P6SM OVC040
     FM250900 09011KT P6SM OVC025
     FM251300 08014G22KT 6SM -RA OVC015
     FM252000 07015G24KT P6SM VCSH OVC025
     FM252300 07014KT P6SM OVC050
     FM260200 05010KT P6SM SCT110=



000
FTUS43 KMKX 250313 AAB
TAFMSN
TAF AMD
KMSN 250313Z 2503/2524 09012KT P6SM OVC040
     FM250900 09012KT P6SM OVC020
     FM251100 09013KT P6SM -RA OVC015
     FM251300 08014KT 5SM -RA OVC010
     FM251600 08015G22KT 3SM -RA OVC015
     FM252100 07015G23KT P6SM OVC035=



000
FTUS43 KMKX 250313 AAB
TAFMSN
TAF AMD
KMSN 250313Z 2503/2524 09012KT P6SM OVC040
     FM250900 09012KT P6SM OVC020
     FM251100 09013KT P6SM -RA OVC015
     FM251300 08014KT 5SM -RA OVC010
     FM251600 08015G22KT 3SM -RA OVC015
     FM252100 07015G23KT P6SM OVC035=



000
FTUS43 KMKX 250312 AAC
TAFMKE
TAF AMD
KMKE 250312Z 2503/2606 06009KT P6SM OVC060
     FM251300 08013KT P6SM -RA OVC025
     FM251600 07014G21KT 5SM -RA OVC008
     FM252000 05014KT P6SM -RA OVC045
     FM252300 04013G20KT P6SM OVC090
     FM260400 03010KT P6SM SCT250=



000
FTUS43 KMKX 250312 AAC
TAFMKE
TAF AMD
KMKE 250312Z 2503/2606 06009KT P6SM OVC060
     FM251300 08013KT P6SM -RA OVC025
     FM251600 07014G21KT 5SM -RA OVC008
     FM252000 05014KT P6SM -RA OVC045
     FM252300 04013G20KT P6SM OVC090
     FM260400 03010KT P6SM SCT250=



000
FTUS43 KMKX 250059 AAB
TAFMKE
TAF AMD
KMKE 250059Z 2501/2606 11008KT P6SM VCSH SCT050 OVC070
      TEMPO 2501/2502 5SM -SHRA SCT035 OVC050
     FM250200 07009KT P6SM OVC060
     FM251300 08013KT P6SM -RA OVC025
     FM251600 07014G21KT 2SM -RA OVC008
     FM252000 05014KT P6SM -RA OVC045
     FM252300 04013G20KT P6SM OVC090
     FM260400 03010KT P6SM SCT250=



000
FTUS43 KMKX 250059 AAB
TAFMKE
TAF AMD
KMKE 250059Z 2501/2606 11008KT P6SM VCSH SCT050 OVC070
      TEMPO 2501/2502 5SM -SHRA SCT035 OVC050
     FM250200 07009KT P6SM OVC060
     FM251300 08013KT P6SM -RA OVC025
     FM251600 07014G21KT 2SM -RA OVC008
     FM252000 05014KT P6SM -RA OVC045
     FM252300 04013G20KT P6SM OVC090
     FM260400 03010KT P6SM SCT250=



000
FTUS43 KMKX 250027 AAA
TAFMSN
TAF AMD
KMSN 250027Z 2500/2524 10008KT P6SM -SHRA SCT035 OVC050
     FM250200 09009KT P6SM OVC040
     FM250900 09012KT P6SM OVC020
     FM251100 09013KT P6SM -RA OVC015
     FM251300 08014KT 5SM -RA OVC010
     FM251600 08015G22KT 2SM -RA OVC015
     FM252100 07015G23KT P6SM OVC035=



000
FTUS43 KMKX 250027 AAA
TAFMSN
TAF AMD
KMSN 250027Z 2500/2524 10008KT P6SM -SHRA SCT035 OVC050
     FM250200 09009KT P6SM OVC040
     FM250900 09012KT P6SM OVC020
     FM251100 09013KT P6SM -RA OVC015
     FM251300 08014KT 5SM -RA OVC010
     FM251600 08015G22KT 2SM -RA OVC015
     FM252100 07015G23KT P6SM OVC035=



000
FTUS43 KMKX 250026 AAA
TAFMKE
TAF AMD
KMKE 250026Z 2500/2606 11008KT P6SM VCSH SCT050 OVC070
      TEMPO 2500/2502 -SHRA SCT035 OVC050
     FM250200 07009KT P6SM OVC060
     FM251300 08013KT P6SM -RA OVC025
     FM251600 07014G21KT 2SM -RA OVC008
     FM252000 05014KT P6SM -RA OVC045
     FM252300 04013G20KT P6SM OVC090
     FM260400 03010KT P6SM SCT250=



000
FTUS43 KMKX 250026 AAA
TAFMKE
TAF AMD
KMKE 250026Z 2500/2606 11008KT P6SM VCSH SCT050 OVC070
      TEMPO 2500/2502 -SHRA SCT035 OVC050
     FM250200 07009KT P6SM OVC060
     FM251300 08013KT P6SM -RA OVC025
     FM251600 07014G21KT 2SM -RA OVC008
     FM252000 05014KT P6SM -RA OVC045
     FM252300 04013G20KT P6SM OVC090
     FM260400 03010KT P6SM SCT250=



000
FTUS43 KMKX 250026 AAA
TAFMKE
TAF AMD
KMKE 250026Z 2500/2606 11008KT P6SM VCSH SCT050 OVC070
      TEMPO 2500/2502 -SHRA SCT035 OVC050
     FM250200 07009KT P6SM OVC060
     FM251300 08013KT P6SM -RA OVC025
     FM251600 07014G21KT 2SM -RA OVC008
     FM252000 05014KT P6SM -RA OVC045
     FM252300 04013G20KT P6SM OVC090
     FM260400 03010KT P6SM SCT250=



000
FTUS43 KMKX 242320
TAFMSN
TAF
KMSN 242320Z 2500/2524 11008KT P6SM -SHRA SCT050 OVC070
      TEMPO 2500/2501 4SM -SHRA BKN040 OVC060
     FM250200 10009KT P6SM OVC060
     FM250900 09012KT P6SM OVC020
     FM251100 09013KT P6SM -RA OVC015
     FM251300 08014KT 5SM -RA OVC010
     FM251600 08015G22KT 2SM -RA OVC015
     FM252100 07015G23KT P6SM OVC035=



000
FTUS43 KMKX 242320
TAFMKE
TAF
KMKE 242320Z 2500/2606 10008KT 6SM -SHRA SCT030 OVC050
      TEMPO 2500/2501 4SM -SHRA BKN035 OVC040
     FM250200 07009KT P6SM OVC060
     FM251300 08013KT P6SM -RA OVC025
     FM251600 07014G21KT 2SM -RA OVC008
     FM252000 05014KT P6SM -RA OVC045
     FM252300 04013G20KT P6SM OVC090
     FM260400 03010KT P6SM SCT250=



000
FTUS43 KMKX 242320
TAFMKE
TAF
KMKE 242320Z 2500/2606 10008KT 6SM -SHRA SCT030 OVC050
      TEMPO 2500/2501 4SM -SHRA BKN035 OVC040
     FM250200 07009KT P6SM OVC060
     FM251300 08013KT P6SM -RA OVC025
     FM251600 07014G21KT 2SM -RA OVC008
     FM252000 05014KT P6SM -RA OVC045
     FM252300 04013G20KT P6SM OVC090
     FM260400 03010KT P6SM SCT250=



000
FTUS43 KMKX 242320
TAFMSN
TAF
KMSN 242320Z 2500/2524 11008KT P6SM -SHRA SCT050 OVC070
      TEMPO 2500/2501 4SM -SHRA BKN040 OVC060
     FM250200 10009KT P6SM OVC060
     FM250900 09012KT P6SM OVC020
     FM251100 09013KT P6SM -RA OVC015
     FM251300 08014KT 5SM -RA OVC010
     FM251600 08015G22KT 2SM -RA OVC015
     FM252100 07015G23KT P6SM OVC035=



000
FTUS43 KMKX 242302 AAD
TAFMKE
TAF AMD
KMKE 242302Z 2423/2524 08009KT P6SM -SHRA OVC050
      TEMPO 2423/2424 1 1/2SM -SHRAPL BKN035 OVC050
     FM250200 09006KT P6SM VCSH OVC070
     FM251200 08012G19KT 6SM RA BR OVC045
     FM251500 08014G21KT 5SM RA BR OVC010
     FM251900 07013G21KT 6SM -RA BR OVC035=



000
FTUS43 KMKX 242302 AAD
TAFMKE
TAF AMD
KMKE 242302Z 2423/2524 08009KT P6SM -SHRA OVC050
      TEMPO 2423/2424 1 1/2SM -SHRAPL BKN035 OVC050
     FM250200 09006KT P6SM VCSH OVC070
     FM251200 08012G19KT 6SM RA BR OVC045
     FM251500 08014G21KT 5SM RA BR OVC010
     FM251900 07013G21KT 6SM -RA BR OVC035=



000
FTUS43 KMKX 242302 AAD
TAFMKE
TAF AMD
KMKE 242302Z 2423/2524 08009KT P6SM -SHRA OVC050
      TEMPO 2423/2424 1 1/2SM -SHRAPL BKN035 OVC050
     FM250200 09006KT P6SM VCSH OVC070
     FM251200 08012G19KT 6SM RA BR OVC045
     FM251500 08014G21KT 5SM RA BR OVC010
     FM251900 07013G21KT 6SM -RA BR OVC035=



000
FTUS43 KMKX 242302 AAD
TAFMKE
TAF AMD
KMKE 242302Z 2423/2524 08009KT P6SM -SHRA OVC050
      TEMPO 2423/2424 1 1/2SM -SHRAPL BKN035 OVC050
     FM250200 09006KT P6SM VCSH OVC070
     FM251200 08012G19KT 6SM RA BR OVC045
     FM251500 08014G21KT 5SM RA BR OVC010
     FM251900 07013G21KT 6SM -RA BR OVC035=



000
FTUS43 KMKX 242156 AAC
TAFMKE
TAF AMD
KMKE 242156Z 2422/2524 12008KT 6SM -SHRA SCT030 OVC050
      TEMPO 2422/2423 3SM -SHRAPL BKN030 OVC040
     FM242300 09009KT P6SM -SHRA OVC090
     FM250200 09006KT P6SM VCSH OVC070
     FM251200 08012G19KT 6SM RA BR OVC045
     FM251500 08014G21KT 5SM RA BR OVC010
     FM251900 07013G21KT 6SM -RA BR OVC035=



000
FTUS43 KMKX 242156 AAC
TAFMKE
TAF AMD
KMKE 242156Z 2422/2524 12008KT 6SM -SHRA SCT030 OVC050
      TEMPO 2422/2423 3SM -SHRAPL BKN030 OVC040
     FM242300 09009KT P6SM -SHRA OVC090
     FM250200 09006KT P6SM VCSH OVC070
     FM251200 08012G19KT 6SM RA BR OVC045
     FM251500 08014G21KT 5SM RA BR OVC010
     FM251900 07013G21KT 6SM -RA BR OVC035=



000
FTUS43 KMKX 242156 AAC
TAFMKE
TAF AMD
KMKE 242156Z 2422/2524 12008KT 6SM -SHRA SCT030 OVC050
      TEMPO 2422/2423 3SM -SHRAPL BKN030 OVC040
     FM242300 09009KT P6SM -SHRA OVC090
     FM250200 09006KT P6SM VCSH OVC070
     FM251200 08012G19KT 6SM RA BR OVC045
     FM251500 08014G21KT 5SM RA BR OVC010
     FM251900 07013G21KT 6SM -RA BR OVC035=



000
FTUS43 KMKX 242156 AAC
TAFMKE
TAF AMD
KMKE 242156Z 2422/2524 12008KT 6SM -SHRA SCT030 OVC050
      TEMPO 2422/2423 3SM -SHRAPL BKN030 OVC040
     FM242300 09009KT P6SM -SHRA OVC090
     FM250200 09006KT P6SM VCSH OVC070
     FM251200 08012G19KT 6SM RA BR OVC045
     FM251500 08014G21KT 5SM RA BR OVC010
     FM251900 07013G21KT 6SM -RA BR OVC035=



000
FTUS43 KMKX 242059 AAB
TAFMKE
TAF AMD
KMKE 242059Z 2421/2524 12008KT P6SM VCSH OVC090
     FM242300 09009KT P6SM -SHRA OVC090
     FM250200 09006KT P6SM VCSH OVC070
     FM251200 08012G19KT 6SM RA BR OVC045
     FM251500 08014G21KT 5SM RA BR OVC010
     FM251900 07013G21KT 6SM -RA BR OVC035=



000
FTUS43 KMKX 242057 AAB
TAFMSN
TAF AMD
KMSN 242057Z 2421/2518 15008KT 6SM -SHRA BR OVC060
     FM250200 11009KT P6SM VCSH OVC060
     FM250900 09011G19KT P6SM VCSH OVC020
     FM251000 09012G19KT 6SM RA BR OVC015
     FM251300 09013G20KT 5SM RA BR OVC010=



000
FTUS43 KMKX 241934 AAA
TAFMSN
TAF AMD
KMSN 241934Z 2420/2518 17010KT 6SM -SHRA BR OVC070
     FM242200 14009KT 6SM -SHRA BR OVC070
     FM250200 11009KT P6SM VCSH OVC060
     FM250900 09011G19KT P6SM VCSH OVC020
     FM251000 09012G19KT 6SM RA BR OVC015
     FM251300 09013G20KT 5SM RA BR OVC010=



000
FTUS43 KMKX 241934 AAA
TAFMSN
TAF AMD
KMSN 241934Z 2420/2518 17010KT 6SM -SHRA BR OVC070
     FM242200 14009KT 6SM -SHRA BR OVC070
     FM250200 11009KT P6SM VCSH OVC060
     FM250900 09011G19KT P6SM VCSH OVC020
     FM251000 09012G19KT 6SM RA BR OVC015
     FM251300 09013G20KT 5SM RA BR OVC010=



000
FTUS43 KMKX 241931 AAA
TAFMKE
TAF AMD
KMKE 241931Z 2420/2524 10010KT P6SM VCSH BKN100
     FM242300 09009KT P6SM -SHRA BKN090
     FM250200 09006KT P6SM VCSH OVC070
     FM251200 08012G19KT 6SM RA BR OVC045
     FM251500 08014G21KT 5SM RA BR OVC010
     FM251900 07013G21KT 6SM -RA BR OVC035=



000
FTUS43 KMKX 241931 AAA
TAFMKE
TAF AMD
KMKE 241931Z 2420/2524 10010KT P6SM VCSH BKN100
     FM242300 09009KT P6SM -SHRA BKN090
     FM250200 09006KT P6SM VCSH OVC070
     FM251200 08012G19KT 6SM RA BR OVC045
     FM251500 08014G21KT 5SM RA BR OVC010
     FM251900 07013G21KT 6SM -RA BR OVC035=



000
FTUS43 KMKX 241738
TAFMSN
TAF
KMSN 241738Z 2418/2518 16009KT P6SM VCSH OVC090
     FM242200 14009KT P6SM -SHRA OVC090
     FM250200 11009KT P6SM VCSH OVC060
     FM250900 09011G19KT P6SM VCSH OVC020
     FM251000 09012G19KT 6SM RA BR OVC015
     FM251300 09013G20KT 5SM RA BR OVC010=



000
FTUS43 KMKX 241738
TAFMKE
TAF
KMKE 241738Z 2418/2524 10008KT P6SM VCSH BKN250
     FM250000 09008KT P6SM -SHRA BKN090
     FM250200 09006KT P6SM VCSH OVC070
     FM251200 08012G19KT 6SM RA BR OVC045
     FM251500 08014G21KT 5SM RA BR OVC010
     FM251900 07013G21KT 6SM -RA BR OVC035=



000
FTUS43 KMKX 241738
TAFMSN
TAF
KMSN 241738Z 2418/2518 16009KT P6SM VCSH OVC090
     FM242200 14009KT P6SM -SHRA OVC090
     FM250200 11009KT P6SM VCSH OVC060
     FM250900 09011G19KT P6SM VCSH OVC020
     FM251000 09012G19KT 6SM RA BR OVC015
     FM251300 09013G20KT 5SM RA BR OVC010=



000
FTUS43 KMKX 241738
TAFMKE
TAF
KMKE 241738Z 2418/2524 10008KT P6SM VCSH BKN250
     FM250000 09008KT P6SM -SHRA BKN090
     FM250200 09006KT P6SM VCSH OVC070
     FM251200 08012G19KT 6SM RA BR OVC045
     FM251500 08014G21KT 5SM RA BR OVC010
     FM251900 07013G21KT 6SM -RA BR OVC035=



000
FTUS43 KMKX 241507 AAB
TAFMKE
TAF AMD
KMKE 241507Z 2415/2518 10008KT P6SM SCT100
     FM241800 10010KT P6SM BKN100
     FM250000 10010KT P6SM -SHRA BKN060
     FM250400 08010KT P6SM VCSH OVC050
     FM251200 08012G19KT P6SM RA OVC050
     FM251700 07013G22KT 5SM RA OVC025=



000
FTUS43 KMKX 241507 AAB
TAFMKE
TAF AMD
KMKE 241507Z 2415/2518 10008KT P6SM SCT100
     FM241800 10010KT P6SM BKN100
     FM250000 10010KT P6SM -SHRA BKN060
     FM250400 08010KT P6SM VCSH OVC050
     FM251200 08012G19KT P6SM RA OVC050
     FM251700 07013G22KT 5SM RA OVC025=



000
FTUS43 KMKX 241505 AAB
TAFMSN
TAF AMD
KMSN 241505Z 2415/2512 16010KT P6SM BKN090
     FM241800 15010KT P6SM VCSH BKN070
     FM242200 12009KT P6SM -SHRA OVC050
     FM250800 09011G19KT P6SM VCSH OVC045
     FM251000 09012G19KT P6SM -SHRA OVC040=



000
FTUS43 KMKX 241505 AAB
TAFMSN
TAF AMD
KMSN 241505Z 2415/2512 16010KT P6SM BKN090
     FM241800 15010KT P6SM VCSH BKN070
     FM242200 12009KT P6SM -SHRA OVC050
     FM250800 09011G19KT P6SM VCSH OVC045
     FM251000 09012G19KT P6SM -SHRA OVC040=



000
FTUS43 KMKX 241505 AAB
TAFMSN
TAF AMD
KMSN 241505Z 2415/2512 16010KT P6SM BKN090
     FM241800 15010KT P6SM VCSH BKN070
     FM242200 12009KT P6SM -SHRA OVC050
     FM250800 09011G19KT P6SM VCSH OVC045
     FM251000 09012G19KT P6SM -SHRA OVC040=



000
FTUS43 KMKX 241505 AAB
TAFMSN
TAF AMD
KMSN 241505Z 2415/2512 16010KT P6SM BKN090
     FM241800 15010KT P6SM VCSH BKN070
     FM242200 12009KT P6SM -SHRA OVC050
     FM250800 09011G19KT P6SM VCSH OVC045
     FM251000 09012G19KT P6SM -SHRA OVC040=



000
FTUS43 KMKX 241346 AAA
TAFMKE
TAF AMD
KMKE 241346Z 2414/2518 09006KT P6SM SCT100
     FM241800 10010KT P6SM BKN100
     FM242100 10010KT P6SM VCSH BKN060
     FM251000 08010KT P6SM VCSH OVC050
     FM251200 08012G19KT P6SM RA OVC050
     FM251700 07013G22KT 5SM RA OVC025=



000
FTUS43 KMKX 241344 AAA
TAFMSN
TAF AMD
KMSN 241344Z 2414/2512 15005KT P6SM BKN090
     FM241800 15009KT P6SM VCSH BKN070
     FM242300 12009KT P6SM VCSH OVC050
     FM250800 09011G19KT P6SM VCSH OVC045
     FM251000 09012G19KT P6SM -SHRA OVC040=



000
FTUS43 KMKX 241344 AAA
TAFMSN
TAF AMD
KMSN 241344Z 2414/2512 15005KT P6SM BKN090
     FM241800 15009KT P6SM VCSH BKN070
     FM242300 12009KT P6SM VCSH OVC050
     FM250800 09011G19KT P6SM VCSH OVC045
     FM251000 09012G19KT P6SM -SHRA OVC040=



000
FTUS43 KMKX 241124
TAFMKE
TAF
KMKE 241124Z 2412/2518 00000KT P6SM FEW250
     FM241500 09006KT P6SM SCT200
     FM241800 10010KT P6SM SCT200
     FM242100 10010KT P6SM VCSH BKN060
     FM251000 08010KT P6SM VCSH OVC050
     FM251200 08012G19KT P6SM RA OVC050
     FM251700 07013G22KT 5SM RA OVC025=



000
FTUS43 KMKX 241124
TAFMKE
TAF
KMKE 241124Z 2412/2518 00000KT P6SM FEW250
     FM241500 09006KT P6SM SCT200
     FM241800 10010KT P6SM SCT200
     FM242100 10010KT P6SM VCSH BKN060
     FM251000 08010KT P6SM VCSH OVC050
     FM251200 08012G19KT P6SM RA OVC050
     FM251700 07013G22KT 5SM RA OVC025=



000
FTUS43 KMKX 241124
TAFMSN
TAF
KMSN 241124Z 2412/2512 00000KT P6SM SCT250
     FM241400 15006KT P6SM SCT200
     FM241800 15009KT P6SM VCSH BKN070
     FM242300 12009KT P6SM VCSH OVC050
     FM250800 09011G19KT P6SM VCSH OVC045
     FM251000 09012G19KT P6SM -SHRA OVC040=



000
FTUS43 KMKX 241124
TAFMSN
TAF
KMSN 241124Z 2412/2512 00000KT P6SM SCT250
     FM241400 15006KT P6SM SCT200
     FM241800 15009KT P6SM VCSH BKN070
     FM242300 12009KT P6SM VCSH OVC050
     FM250800 09011G19KT P6SM VCSH OVC045
     FM251000 09012G19KT P6SM -SHRA OVC040=



000
FTUS43 KMKX 241124
TAFMSN
TAF
KMSN 241124Z 2412/2512 00000KT P6SM SCT250
     FM241400 15006KT P6SM SCT200
     FM241800 15009KT P6SM VCSH BKN070
     FM242300 12009KT P6SM VCSH OVC050
     FM250800 09011G19KT P6SM VCSH OVC045
     FM251000 09012G19KT P6SM -SHRA OVC040=



000
FTUS43 KMKX 241124
TAFMKE
TAF
KMKE 241124Z 2412/2518 00000KT P6SM FEW250
     FM241500 09006KT P6SM SCT200
     FM241800 10010KT P6SM SCT200
     FM242100 10010KT P6SM VCSH BKN060
     FM251000 08010KT P6SM VCSH OVC050
     FM251200 08012G19KT P6SM RA OVC050
     FM251700 07013G22KT 5SM RA OVC025=



000
FTUS43 KMKX 241124
TAFMKE
TAF
KMKE 241124Z 2412/2518 00000KT P6SM FEW250
     FM241500 09006KT P6SM SCT200
     FM241800 10010KT P6SM SCT200
     FM242100 10010KT P6SM VCSH BKN060
     FM251000 08010KT P6SM VCSH OVC050
     FM251200 08012G19KT P6SM RA OVC050
     FM251700 07013G22KT 5SM RA OVC025=



000
FTUS43 KMKX 241124
TAFMSN
TAF
KMSN 241124Z 2412/2512 00000KT P6SM SCT250
     FM241400 15006KT P6SM SCT200
     FM241800 15009KT P6SM VCSH BKN070
     FM242300 12009KT P6SM VCSH OVC050
     FM250800 09011G19KT P6SM VCSH OVC045
     FM251000 09012G19KT P6SM -SHRA OVC040=



    US Dept of Commerce
    National Oceanic and Atmospheric Administration
    National Weather Service
    1325 East West Highway
    Silver Spring, MD 20910
    Page Author: NWS Internet Services Team
Disclaimer
Information Quality
Credits
Glossary
Privacy Policy
Freedom of Information Act (FOIA)
About Us
Career Opportunities